createdAt,value
2018-02-03T00:00:48.202Z,0
2018-02-03T00:03:39.704Z,0
2018-02-03T00:04:28.223Z,0
2018-02-03T00:05:17.000Z,0
2018-02-03T00:06:06.191Z,0
2018-02-03T00:06:54.667Z,0
2018-02-03T00:07:43.250Z,0
2018-02-03T00:08:31.957Z,0
2018-02-03T00:09:22.495Z,0
2018-02-03T00:10:16.830Z,0
2018-02-03T00:11:12.616Z,0
2018-02-03T00:12:00.619Z,0
2018-02-03T00:12:50.851Z,0
2018-02-03T00:13:39.369Z,0
2018-02-03T00:14:36.526Z,0
2018-02-03T00:15:25.219Z,0
2018-02-03T00:16:16.800Z,0
2018-02-03T00:17:05.787Z,0
2018-02-03T00:17:54.759Z,0
2018-02-03T00:18:43.425Z,0
2018-02-03T00:19:38.398Z,0
2018-02-03T00:20:26.787Z,0
2018-02-03T00:21:15.310Z,0
2018-02-03T00:22:03.878Z,0
2018-02-03T00:22:53.418Z,0
2018-02-03T00:26:42.327Z,0
2018-02-03T00:29:29.439Z,0
2018-02-03T00:30:17.405Z,0
2018-02-03T00:31:06.878Z,0
2018-02-03T00:31:58.860Z,0
2018-02-03T00:32:42.191Z,0
2018-02-03T00:33:23.950Z,0
2018-02-03T00:34:04.354Z,0
2018-02-03T00:34:46.792Z,0
2018-02-03T00:35:27.448Z,0
2018-02-03T00:36:07.911Z,0
2018-02-03T00:36:48.635Z,0
2018-02-03T00:37:31.412Z,0
2018-02-03T00:38:12.358Z,0
2018-02-03T00:38:52.757Z,0
2018-02-03T00:39:33.130Z,0
2018-02-03T00:40:13.794Z,0
2018-02-03T00:40:54.090Z,0
2018-02-03T00:41:34.499Z,0
2018-02-03T00:42:14.922Z,0
2018-02-03T00:42:55.311Z,0
2018-02-03T00:43:41.047Z,0
2018-02-03T00:44:21.096Z,0
2018-02-03T00:45:01.481Z,0
2018-02-03T00:45:41.926Z,0
2018-02-03T00:46:22.302Z,0
2018-02-03T00:47:03.095Z,0
2018-02-03T00:47:46.171Z,0
2018-02-03T00:48:27.078Z,0
2018-02-03T00:49:07.487Z,0
2018-02-03T00:49:48.361Z,0
2018-02-03T00:50:29.164Z,0
2018-02-03T00:51:11.159Z,0
2018-02-03T00:51:52.675Z,0
2018-02-03T00:52:33.219Z,0
2018-02-03T00:53:13.640Z,0
2018-02-03T00:53:54.374Z,0
2018-02-03T00:54:37.827Z,0
2018-02-03T00:55:23.736Z,0
2018-02-03T00:56:05.561Z,0
2018-02-03T00:56:46.780Z,0
2018-02-03T00:57:27.202Z,0
2018-02-03T00:58:08.292Z,0
2018-02-03T00:58:48.718Z,0
2018-02-03T01:01:21.377Z,0
2018-02-03T01:02:20.466Z,0
2018-02-03T01:05:03.162Z,0
2018-02-03T01:05:51.720Z,0
2018-02-03T01:06:40.286Z,0
2018-02-03T01:07:21.842Z,0
2018-02-03T01:08:02.757Z,0
2018-02-03T01:08:44.368Z,0
2018-02-03T01:11:24.464Z,0
2018-02-03T01:13:54.662Z,0
2018-02-03T01:14:42.117Z,0
2018-02-03T01:17:33.701Z,0
2018-02-03T01:18:22.890Z,0
2018-02-03T01:19:11.281Z,0
2018-02-03T01:20:02.157Z,0
2018-02-03T01:20:50.792Z,0
2018-02-03T01:21:43.890Z,0
2018-02-03T01:22:29.124Z,0
2018-02-03T01:23:17.267Z,0
2018-02-03T01:24:06.810Z,0
2018-02-03T01:24:55.962Z,0
2018-02-03T01:25:44.156Z,0
2018-02-03T01:26:33.052Z,0
2018-02-03T01:27:21.636Z,0
2018-02-03T01:28:09.169Z,0
2018-02-03T01:28:59.445Z,0
2018-02-03T01:29:47.615Z,0
2018-02-03T01:30:36.653Z,0
2018-02-03T01:31:22.353Z,0
2018-02-03T01:32:02.891Z,0
2018-02-03T01:32:44.687Z,0
2018-02-03T01:33:26.011Z,0
2018-02-03T01:34:06.447Z,0
2018-02-03T01:34:49.679Z,0
2018-02-03T01:35:34.366Z,0
2018-02-03T01:36:15.057Z,0
2018-02-03T01:36:56.035Z,0
2018-02-03T01:37:37.789Z,0
2018-02-03T01:38:18.323Z,0
2018-02-03T01:38:59.940Z,0
2018-02-03T01:39:42.541Z,0
2018-02-03T01:40:22.357Z,0
2018-02-03T01:41:03.758Z,0
2018-02-03T01:41:46.619Z,0
2018-02-03T01:42:27.165Z,0
2018-02-03T01:43:10.003Z,0
2018-02-03T01:43:50.399Z,0
2018-02-03T01:44:30.814Z,0
2018-02-03T01:45:11.194Z,0
2018-02-03T01:45:51.605Z,0
2018-02-03T01:46:32.417Z,0
2018-02-03T01:47:12.808Z,0
2018-02-03T01:47:54.622Z,0
2018-02-03T01:48:36.326Z,0
2018-02-03T01:49:16.620Z,0
2018-02-03T01:49:57.048Z,0
2018-02-03T01:50:37.458Z,0
2018-02-03T01:51:17.822Z,0
2018-02-03T01:52:00.209Z,0
2018-02-03T01:52:40.636Z,0
2018-02-03T01:53:25.520Z,0
2018-02-03T01:54:07.125Z,0
2018-02-03T01:56:53.652Z,0
2018-02-03T01:57:42.159Z,0
2018-02-03T01:58:30.408Z,0
2018-02-03T01:59:20.295Z,0
2018-02-03T02:00:08.136Z,0
2018-02-03T02:00:56.627Z,0
2018-02-03T02:01:44.800Z,0
2018-02-03T02:02:33.556Z,0
2018-02-03T02:03:21.857Z,0
2018-02-03T02:04:10.643Z,0
2018-02-03T02:04:59.132Z,0
2018-02-03T02:05:47.679Z,0
2018-02-03T02:06:36.965Z,0
2018-02-03T02:07:28.416Z,0
2018-02-03T02:08:16.711Z,0
2018-02-03T02:09:06.972Z,0
2018-02-03T02:09:57.173Z,0
2018-02-03T02:10:45.680Z,0
2018-02-03T02:11:36.069Z,0
2018-02-03T02:12:24.876Z,0
2018-02-03T02:13:13.521Z,0
2018-02-03T02:14:02.293Z,0
2018-02-03T02:14:51.480Z,0
2018-02-03T02:15:39.984Z,0
2018-02-03T02:16:19.136Z,0
2018-02-03T02:16:59.954Z,0
2018-02-03T02:17:41.395Z,0
2018-02-03T02:18:21.810Z,0
2018-02-03T02:19:04.183Z,0
2018-02-03T02:21:51.147Z,0
2018-02-03T02:22:39.580Z,0
2018-02-03T02:23:27.895Z,0
2018-02-03T02:24:17.154Z,0
2018-02-03T02:25:05.676Z,0
2018-02-03T02:25:54.147Z,0
2018-02-03T02:26:43.138Z,0
2018-02-03T02:27:31.404Z,0
2018-02-03T02:28:19.950Z,0
2018-02-03T02:29:08.398Z,0
2018-02-03T02:29:56.901Z,0
2018-02-03T02:30:46.102Z,0
2018-02-03T02:31:34.840Z,0
2018-02-03T02:32:23.917Z,0
2018-02-03T02:33:16.249Z,0
2018-02-03T02:34:05.546Z,0
2018-02-03T02:34:54.221Z,0
2018-02-03T02:35:43.108Z,0
2018-02-03T02:36:31.293Z,0
2018-02-03T02:37:19.736Z,0
2018-02-03T02:38:08.777Z,0
2018-02-03T02:38:57.343Z,0
2018-02-03T02:39:45.885Z,0
2018-02-03T02:40:37.676Z,0
2018-02-03T02:41:25.980Z,0
2018-02-03T02:42:13.732Z,0
2018-02-03T02:43:02.295Z,0
2018-02-03T02:43:51.314Z,0
2018-02-03T02:44:41.458Z,0
2018-02-03T02:45:24.671Z,0
2018-02-03T02:46:13.899Z,0
2018-02-03T02:47:01.193Z,0
2018-02-03T02:47:50.062Z,0
2018-02-03T02:48:38.161Z,0
2018-02-03T02:49:26.941Z,0
2018-02-03T02:50:15.348Z,0
2018-02-03T02:51:04.205Z,0
2018-02-03T02:51:52.404Z,0
2018-02-03T02:52:40.837Z,0
2018-02-03T02:53:29.345Z,0
2018-02-03T02:54:17.940Z,0
2018-02-03T02:55:06.772Z,0
2018-02-03T02:55:54.904Z,0
2018-02-03T02:56:43.861Z,0
2018-02-03T02:57:26.821Z,0
2018-02-03T02:58:06.985Z,0
2018-02-03T02:58:47.619Z,0
2018-02-03T02:59:27.972Z,0
2018-02-03T03:00:08.340Z,0
2018-02-03T03:00:48.714Z,0
2018-02-03T03:01:30.064Z,0
2018-02-03T03:02:10.730Z,0
2018-02-03T03:02:50.968Z,0
2018-02-03T03:03:31.673Z,0
2018-02-03T03:04:11.905Z,0
2018-02-03T03:04:52.325Z,0
2018-02-03T03:05:32.718Z,0
2018-02-03T03:06:13.090Z,0
2018-02-03T03:06:53.535Z,0
2018-02-03T03:07:33.941Z,0
2018-02-03T03:08:14.335Z,0
2018-02-03T03:08:54.744Z,0
2018-02-03T03:09:35.119Z,0
2018-02-03T03:10:15.833Z,0
2018-02-03T03:10:56.112Z,0
2018-02-03T03:11:36.475Z,0
2018-02-03T03:12:16.922Z,0
2018-02-03T03:12:57.355Z,0
2018-02-03T03:13:37.706Z,0
2018-02-03T03:14:18.142Z,0
2018-02-03T03:14:58.509Z,0
2018-02-03T03:15:38.965Z,0
2018-02-03T03:16:19.290Z,0
2018-02-03T03:16:59.648Z,0
2018-02-03T03:17:40.338Z,0
2018-02-03T03:18:20.554Z,0
2018-02-03T03:19:00.970Z,0
2018-02-03T03:19:41.336Z,0
2018-02-03T03:22:16.259Z,0
2018-02-03T03:23:05.726Z,0
2018-02-03T03:23:54.162Z,0
2018-02-03T03:24:42.575Z,0
2018-02-03T03:25:30.799Z,0
2018-02-03T03:26:19.493Z,0
2018-02-03T03:27:07.862Z,0
2018-02-03T03:27:56.203Z,0
2018-02-03T03:28:45.013Z,0
2018-02-03T03:29:33.459Z,0
2018-02-03T03:30:22.272Z,0
2018-02-03T03:31:10.577Z,0
2018-02-03T03:31:58.983Z,0
2018-02-03T03:32:48.222Z,0
2018-02-03T03:33:32.616Z,0
2018-02-03T03:34:22.102Z,0
2018-02-03T03:35:10.154Z,0
2018-02-03T03:35:59.021Z,0
2018-02-03T03:36:47.266Z,0
2018-02-03T03:37:35.519Z,0
2018-02-03T03:38:24.538Z,0
2018-02-03T03:39:04.083Z,0
2018-02-03T03:39:44.504Z,0
2018-02-03T03:40:24.867Z,0
2018-02-03T03:41:05.199Z,0
2018-02-03T03:41:45.586Z,0
2018-02-03T03:42:26.679Z,0
2018-02-03T03:43:07.002Z,0
2018-02-03T03:43:47.478Z,0
2018-02-03T03:44:27.903Z,0
2018-02-03T03:45:08.257Z,0
2018-02-03T03:45:48.689Z,0
2018-02-03T03:46:29.048Z,0
2018-02-03T03:47:09.466Z,0
2018-02-03T03:47:49.857Z,0
2018-02-03T03:48:30.285Z,0
2018-02-03T03:49:10.641Z,0
2018-02-03T03:49:51.047Z,0
2018-02-03T03:50:31.402Z,0
2018-02-03T03:51:11.907Z,0
2018-02-03T03:51:52.298Z,0
2018-02-03T03:52:32.681Z,0
2018-02-03T03:53:13.127Z,0
2018-02-03T03:53:53.522Z,0
2018-02-03T03:54:33.882Z,0
2018-02-03T03:55:14.315Z,0
2018-02-03T03:55:54.657Z,0
2018-02-03T03:56:35.056Z,0
2018-02-03T03:57:15.498Z,0
2018-02-03T03:57:55.870Z,0
2018-02-03T03:58:36.257Z,0
2018-02-03T03:59:16.605Z,0
2018-02-03T03:59:57.015Z,0
2018-02-03T04:00:37.419Z,0
2018-02-03T04:01:17.787Z,0
2018-02-03T04:01:58.244Z,0
2018-02-03T04:02:38.624Z,0
2018-02-03T04:03:19.078Z,0
2018-02-03T04:03:59.443Z,0
2018-02-03T04:42:34.256Z,0
2018-02-03T04:48:15.000Z,0
2018-02-03T04:52:34.974Z,0
2018-02-03T04:55:30.841Z,0
2018-02-03T04:57:58.793Z,0
2018-02-03T05:02:23.537Z,0
2018-02-03T05:05:22.417Z,0
2018-02-03T05:06:14.690Z,0
2018-02-03T05:07:08.216Z,0
2018-02-03T05:11:49.782Z,0
2018-02-03T05:12:40.062Z,0
2018-02-03T05:13:31.056Z,0
2018-02-03T05:17:11.263Z,0
2018-02-03T05:18:03.566Z,0
2018-02-03T05:18:56.229Z,0
2018-02-03T05:19:48.880Z,0
2018-02-03T05:20:51.005Z,0
2018-02-03T05:21:44.283Z,0
2018-02-03T05:22:37.884Z,0
2018-02-03T05:23:37.098Z,0
2018-02-03T05:24:32.475Z,0
2018-02-03T05:25:25.055Z,0
2018-02-03T05:26:17.219Z,0
2018-02-03T05:27:09.235Z,0
2018-02-03T05:28:01.529Z,0
2018-02-03T05:28:54.277Z,0
2018-02-03T05:29:46.633Z,0
2018-02-03T05:30:39.616Z,0
2018-02-03T05:31:32.028Z,0
2018-02-03T05:32:25.311Z,0
2018-02-03T05:33:17.422Z,0
2018-02-03T05:34:09.510Z,0
2018-02-03T05:35:01.638Z,0
2018-02-03T05:35:54.973Z,0
2018-02-03T05:36:46.980Z,0
2018-02-03T05:37:39.058Z,0
2018-02-03T05:38:31.173Z,0
2018-02-03T05:39:24.700Z,0
2018-02-03T05:40:17.851Z,0
2018-02-03T05:41:10.247Z,0
2018-02-03T05:42:02.067Z,0
2018-02-03T05:42:54.198Z,0
2018-02-03T05:43:46.740Z,0
2018-02-03T05:44:39.262Z,0
2018-02-03T05:45:31.257Z,0
2018-02-03T05:46:23.042Z,0
2018-02-03T05:47:15.222Z,0
2018-02-03T05:48:07.346Z,0
2018-02-03T05:48:59.177Z,0
2018-02-03T05:49:51.776Z,0
2018-02-03T05:50:44.291Z,0
2018-02-03T05:51:37.237Z,0
2018-02-03T05:52:29.342Z,0
2018-02-03T05:53:21.633Z,0
2018-02-03T05:54:14.352Z,0
2018-02-03T05:55:07.275Z,0
2018-02-03T05:56:00.235Z,0
2018-02-03T05:56:52.502Z,0
2018-02-03T05:57:45.148Z,0
2018-02-03T05:58:37.565Z,0
2018-02-03T05:59:30.241Z,0
2018-02-03T06:00:23.364Z,0
2018-02-03T06:01:15.718Z,0
2018-02-03T06:02:08.083Z,0
2018-02-03T06:03:01.840Z,0
2018-02-03T06:03:54.184Z,0
2018-02-03T06:04:46.825Z,0
2018-02-03T06:05:39.028Z,0
2018-02-03T06:06:31.273Z,0
2018-02-03T06:07:18.652Z,0
2018-02-03T06:07:59.116Z,0
2018-02-03T06:08:39.880Z,0
2018-02-03T06:09:20.828Z,0
2018-02-03T06:10:01.537Z,0
2018-02-03T06:10:43.083Z,0
2018-02-03T06:11:24.828Z,0
2018-02-03T06:12:06.195Z,0
2018-02-03T06:15:01.070Z,0
2018-02-03T06:15:53.406Z,0
2018-02-03T06:16:46.060Z,0
2018-02-03T06:17:39.478Z,0
2018-02-03T06:18:31.939Z,0
2018-02-03T06:19:25.256Z,0
2018-02-03T06:20:17.520Z,0
2018-02-03T06:21:09.971Z,0
2018-02-03T06:22:02.969Z,0
2018-02-03T06:22:55.403Z,0
2018-02-03T06:23:49.524Z,0
2018-02-03T06:24:42.704Z,0
2018-02-03T06:25:34.854Z,0
2018-02-03T06:26:26.898Z,0
2018-02-03T06:27:19.235Z,0
2018-02-03T06:28:11.957Z,0
2018-02-03T06:29:04.508Z,0
2018-02-03T06:29:56.520Z,0
2018-02-03T06:30:48.879Z,0
2018-02-03T06:31:41.585Z,0
2018-02-03T06:32:33.907Z,0
2018-02-03T06:33:26.486Z,0
2018-02-03T06:34:19.047Z,0
2018-02-03T06:35:11.405Z,0
2018-02-03T06:36:04.016Z,0
2018-02-03T06:36:56.252Z,0
2018-02-03T06:37:49.024Z,0
2018-02-03T06:38:41.510Z,0
2018-02-03T06:39:33.869Z,0
2018-02-03T06:40:26.522Z,0
2018-02-03T06:41:18.668Z,0
2018-02-03T06:42:11.092Z,0
2018-02-03T06:43:03.299Z,0
2018-02-03T06:43:55.890Z,0
2018-02-03T06:44:48.995Z,0
2018-02-03T06:45:41.611Z,0
2018-02-03T06:46:34.391Z,0
2018-02-03T06:47:27.223Z,0
2018-02-03T06:48:20.336Z,0
2018-02-03T06:49:12.629Z,0
2018-02-03T06:50:05.017Z,0
2018-02-03T06:50:57.951Z,0
2018-02-03T06:51:51.453Z,0
2018-02-03T06:52:44.476Z,0
2018-02-03T06:53:37.523Z,0
2018-02-03T06:54:30.987Z,0
2018-02-03T06:55:24.944Z,0
2018-02-03T06:56:17.442Z,0
2018-02-03T06:57:09.971Z,0
2018-02-03T06:58:02.198Z,0
2018-02-03T06:58:55.409Z,0
2018-02-03T06:59:48.016Z,0
2018-02-03T07:00:40.744Z,0
2018-02-03T07:01:32.796Z,0
2018-02-03T07:02:24.837Z,0
2018-02-03T07:03:16.941Z,0
2018-02-03T07:04:09.014Z,0
2018-02-03T07:05:01.888Z,0
2018-02-03T07:05:55.358Z,0
2018-02-03T07:06:47.939Z,0
2018-02-03T07:07:40.605Z,0
2018-02-03T07:08:32.890Z,0
2018-02-03T07:09:25.314Z,0
2018-02-03T07:10:18.393Z,0
2018-02-03T07:11:11.669Z,0
2018-02-03T07:12:04.398Z,0
2018-02-03T07:12:58.535Z,0
2018-02-03T07:13:52.649Z,0
2018-02-03T07:14:44.970Z,0
2018-02-03T07:15:37.510Z,0
2018-02-03T07:16:29.890Z,0
2018-02-03T07:17:22.889Z,0
2018-02-03T07:18:15.976Z,0
2018-02-03T07:19:09.565Z,0
2018-02-03T07:19:50.086Z,0
2018-02-03T07:20:30.582Z,0
2018-02-03T07:21:11.428Z,0
2018-02-03T07:21:52.333Z,0
2018-02-03T07:22:33.237Z,0
2018-02-03T07:23:14.361Z,0
2018-02-03T07:23:55.251Z,0
2018-02-03T07:24:36.336Z,0
2018-02-03T07:25:17.031Z,0
2018-02-03T07:25:58.126Z,0
2018-02-03T07:26:39.286Z,0
2018-02-03T07:27:19.864Z,0
2018-02-03T07:28:00.518Z,0
2018-02-03T07:28:41.399Z,0
2018-02-03T07:29:22.610Z,0
2018-02-03T07:30:03.784Z,0
2018-02-03T07:30:44.647Z,0
2018-02-03T07:31:26.024Z,0
2018-02-03T07:32:07.071Z,0
2018-02-03T07:32:48.182Z,0
2018-02-03T07:33:29.504Z,0
2018-02-03T07:34:10.804Z,0
2018-02-03T07:34:51.629Z,0
2018-02-03T07:35:32.382Z,0
2018-02-03T07:36:13.235Z,0
2018-02-03T07:36:53.857Z,0
2018-02-03T07:37:34.539Z,0
2018-02-03T07:38:16.137Z,0
2018-02-03T07:38:57.272Z,0
2018-02-03T07:39:37.658Z,0
2018-02-03T07:40:18.073Z,0
2018-02-03T07:40:58.827Z,0
2018-02-03T07:41:40.208Z,0
2018-02-03T07:42:20.903Z,0
2018-02-03T07:43:01.916Z,0
2018-02-03T07:43:42.469Z,0
2018-02-03T07:44:22.743Z,0
2018-02-03T07:45:03.592Z,0
2018-02-03T07:45:43.997Z,0
2018-02-03T07:46:24.677Z,0
2018-02-03T07:47:05.657Z,0
2018-02-03T07:47:46.401Z,0
2018-02-03T07:48:27.286Z,0
2018-02-03T07:49:07.799Z,0
2018-02-03T07:49:48.441Z,5
2018-02-03T07:50:28.742Z,5
2018-02-03T07:51:09.429Z,5
2018-02-03T07:51:52.708Z,5
2018-02-03T07:52:33.221Z,0
2018-02-03T07:53:13.999Z,0
2018-02-03T07:53:54.807Z,0
2018-02-03T07:54:35.799Z,0
2018-02-03T07:55:16.417Z,5
2018-02-03T07:55:57.189Z,5
2018-02-03T07:56:37.999Z,5
2018-02-03T07:57:18.646Z,5
2018-02-03T07:57:59.361Z,5
2018-02-03T07:58:40.137Z,5
2018-02-03T07:59:20.880Z,5
2018-02-03T08:00:01.703Z,5
2018-02-03T08:00:42.578Z,5
2018-02-03T08:01:23.114Z,5
2018-02-03T08:02:03.641Z,5
2018-02-03T08:02:44.211Z,5
2018-02-03T08:03:24.659Z,5
2018-02-03T08:04:05.751Z,5
2018-02-03T08:04:46.101Z,5
2018-02-03T08:05:26.762Z,5
2018-02-03T08:06:07.340Z,5
2018-02-03T08:06:48.088Z,5
2018-02-03T08:07:28.441Z,5
2018-02-03T08:08:09.174Z,5
2018-02-03T08:08:49.868Z,5
2018-02-03T08:09:30.413Z,5
2018-02-03T08:10:11.040Z,5
2018-02-03T08:10:51.981Z,5
2018-02-03T08:11:32.651Z,5
2018-02-03T08:12:13.219Z,5
2018-02-03T08:12:53.898Z,5
2018-02-03T08:13:34.946Z,5
2018-02-03T08:14:15.930Z,5
2018-02-03T08:14:56.333Z,5
2018-02-03T08:15:36.996Z,5
2018-02-03T08:16:17.451Z,5
2018-02-03T08:16:58.611Z,5
2018-02-03T08:17:38.899Z,5
2018-02-03T08:18:19.611Z,5
2018-02-03T08:19:00.516Z,5
2018-02-03T08:19:41.008Z,5
2018-02-03T08:20:22.212Z,5
2018-02-03T08:21:02.876Z,5
2018-02-03T08:21:44.069Z,5
2018-02-03T08:22:25.366Z,5
2018-02-03T08:23:07.060Z,5
2018-02-03T08:23:47.841Z,5
2018-02-03T08:24:28.789Z,5
2018-02-03T08:25:10.232Z,5
2018-02-03T08:25:51.259Z,5
2018-02-03T08:26:32.635Z,5
2018-02-03T08:27:14.500Z,5
2018-02-03T08:27:55.589Z,5
2018-02-03T08:28:36.606Z,5
2018-02-03T08:29:17.029Z,5
2018-02-03T08:29:57.960Z,5
2018-02-03T08:30:39.192Z,5
2018-02-03T08:31:20.136Z,5
2018-02-03T08:32:01.793Z,5
2018-02-03T08:32:42.769Z,5
2018-02-03T08:33:23.279Z,5
2018-02-03T08:34:04.232Z,5
2018-02-03T08:34:45.165Z,5
2018-02-03T08:35:26.058Z,5
2018-02-03T08:36:06.718Z,5
2018-02-03T08:36:47.298Z,5
2018-02-03T08:37:28.557Z,5
2018-02-03T08:38:09.113Z,5
2018-02-03T08:38:49.513Z,5
2018-02-03T08:39:30.273Z,10
2018-02-03T08:40:10.548Z,10
2018-02-03T08:40:51.730Z,10
2018-02-03T08:41:32.251Z,10
2018-02-03T08:42:12.984Z,10
2018-02-03T08:42:53.744Z,10
2018-02-03T08:43:34.283Z,10
2018-02-03T08:44:14.738Z,10
2018-02-03T08:44:55.225Z,10
2018-02-03T08:45:36.182Z,10
2018-02-03T08:46:16.587Z,10
2018-02-03T08:46:56.998Z,10
2018-02-03T08:47:37.709Z,10
2018-02-03T08:48:18.282Z,10
2018-02-03T08:48:58.876Z,10
2018-02-03T08:49:39.623Z,10
2018-02-03T08:50:20.406Z,10
2018-02-03T08:51:00.865Z,10
2018-02-03T08:51:41.587Z,10
2018-02-03T08:52:22.048Z,10
2018-02-03T08:53:02.443Z,10
2018-02-03T08:53:43.116Z,15
2018-02-03T08:54:23.783Z,15
2018-02-03T08:55:04.376Z,15
2018-02-03T08:55:44.989Z,15
2018-02-03T08:56:25.386Z,15
2018-02-03T08:57:05.991Z,15
2018-02-03T08:57:46.750Z,15
2018-02-03T08:58:27.357Z,15
2018-02-03T08:59:07.606Z,15
2018-02-03T08:59:48.127Z,15
2018-02-03T09:00:28.738Z,15
2018-02-03T09:01:09.194Z,15
2018-02-03T09:01:50.189Z,15
2018-02-03T09:02:30.524Z,15
2018-02-03T09:03:11.254Z,15
2018-02-03T09:03:52.045Z,15
2018-02-03T09:04:32.953Z,10
2018-02-03T09:05:13.367Z,10
2018-02-03T09:05:54.194Z,10
2018-02-03T09:06:35.378Z,10
2018-02-03T09:07:15.873Z,10
2018-02-03T09:07:56.681Z,10
2018-02-03T09:08:37.005Z,10
2018-02-03T09:09:17.676Z,10
2018-02-03T09:09:58.392Z,10
2018-02-03T09:10:39.051Z,10
2018-02-03T09:11:19.621Z,10
2018-02-03T09:12:00.475Z,10
2018-02-03T09:12:41.307Z,10
2018-02-03T09:13:22.668Z,10
2018-02-03T09:14:03.717Z,15
2018-02-03T09:14:44.963Z,15
2018-02-03T09:15:25.523Z,15
2018-02-03T09:16:06.010Z,15
2018-02-03T09:16:47.485Z,15
2018-02-03T09:17:28.287Z,15
2018-02-03T09:18:08.890Z,15
2018-02-03T09:18:49.599Z,15
2018-02-03T09:19:30.049Z,15
2018-02-03T09:20:10.672Z,15
2018-02-03T09:20:51.497Z,15
2018-02-03T09:21:32.209Z,15
2018-02-03T09:22:13.034Z,15
2018-02-03T09:22:53.979Z,15
2018-02-03T09:23:34.781Z,15
2018-02-03T09:24:15.859Z,15
2018-02-03T09:24:56.596Z,15
2018-02-03T09:25:37.338Z,20
2018-02-03T09:26:19.033Z,20
2018-02-03T09:26:59.803Z,20
2018-02-03T09:27:46.989Z,20
2018-02-03T09:28:27.652Z,20
2018-02-03T09:29:08.364Z,20
2018-02-03T09:29:48.796Z,20
2018-02-03T09:30:29.495Z,25
2018-02-03T09:31:10.324Z,25
2018-02-03T09:31:50.754Z,25
2018-02-03T09:32:31.437Z,25
2018-02-03T09:33:11.954Z,25
2018-02-03T09:33:52.846Z,25
2018-02-03T09:34:33.385Z,25
2018-02-03T09:35:14.568Z,25
2018-02-03T09:36:06.893Z,25
2018-02-03T09:36:47.223Z,30
2018-02-03T09:37:27.571Z,30
2018-02-03T09:38:08.114Z,30
2018-02-03T09:38:48.653Z,30
2018-02-03T09:42:43.290Z,45
2018-02-03T09:43:35.898Z,50
2018-02-03T09:44:28.322Z,50
2018-02-03T09:45:21.721Z,50
2018-02-03T09:46:15.725Z,45
2018-02-03T09:47:09.379Z,55
2018-02-03T09:48:02.453Z,50
2018-02-03T09:49:04.760Z,50
2018-02-03T09:50:04.089Z,45
2018-02-03T09:51:07.422Z,40
2018-02-03T09:52:03.795Z,40
2018-02-03T09:52:56.779Z,40
2018-02-03T09:53:39.483Z,40
2018-02-03T09:54:19.832Z,40
2018-02-03T09:55:00.217Z,40
2018-02-03T09:55:40.630Z,40
2018-02-03T09:56:21.109Z,40
2018-02-03T09:57:02.382Z,40
2018-02-03T09:57:41.879Z,40
2018-02-03T09:58:22.262Z,40
2018-02-03T09:59:02.689Z,40
2018-02-03T09:59:43.070Z,40
2018-02-03T10:00:23.464Z,40
2018-02-03T10:01:03.870Z,40
2018-02-03T10:01:44.363Z,40
2018-02-03T10:02:24.742Z,40
2018-02-03T10:03:05.146Z,40
2018-02-03T10:03:45.596Z,40
2018-02-03T10:04:26.005Z,40
2018-02-03T10:05:06.466Z,40
2018-02-03T10:43:11.739Z,40
2018-02-03T10:43:45.114Z,40
2018-02-03T10:44:31.033Z,45
2018-02-03T10:45:10.561Z,40
2018-02-03T10:45:50.955Z,40
2018-02-03T10:46:31.312Z,40
2018-02-03T10:47:12.588Z,40
2018-02-03T10:47:52.987Z,40
2018-02-03T10:48:33.401Z,40
2018-02-03T10:49:14.964Z,40
2018-02-03T10:49:55.913Z,40
2018-02-03T10:50:41.860Z,40
2018-02-03T10:51:26.222Z,40
2018-02-03T10:52:07.524Z,45
2018-02-03T10:52:47.898Z,45
2018-02-03T10:53:29.106Z,45
2018-02-03T10:54:12.344Z,45
2018-02-03T10:54:52.827Z,45
2018-02-03T10:55:33.293Z,45
2018-02-03T10:59:52.699Z,50
2018-02-03T11:00:33.450Z,55
2018-02-03T11:03:03.996Z,55
2018-02-03T11:04:00.173Z,55
2018-02-03T11:05:17.276Z,60
2018-02-03T11:06:09.174Z,60
2018-02-03T11:07:02.731Z,60
2018-02-03T11:07:55.896Z,60
2018-02-03T11:08:50.062Z,60
2018-02-03T11:09:41.678Z,65
2018-02-03T11:10:34.396Z,70
2018-02-03T11:11:14.444Z,65
2018-02-03T11:11:55.059Z,65
2018-02-03T11:12:35.489Z,65
2018-02-03T11:13:15.951Z,65
2018-02-03T11:13:56.440Z,65
2018-02-03T11:14:36.891Z,65
2018-02-03T11:15:17.462Z,65
2018-02-03T11:15:58.101Z,70
2018-02-03T11:16:41.352Z,70
2018-02-03T11:17:21.794Z,70
2018-02-03T11:18:02.284Z,70
2018-02-03T11:18:42.757Z,70
2018-02-03T11:19:23.386Z,70
2018-02-03T11:20:03.911Z,70
2018-02-03T11:25:48.941Z,55
2018-02-03T11:26:41.614Z,50
2018-02-03T11:27:34.324Z,50
2018-02-03T11:28:26.596Z,50
2018-02-03T11:29:18.753Z,50
2018-02-03T11:30:10.983Z,50
2018-02-03T11:31:03.225Z,45
2018-02-03T11:31:55.817Z,45
2018-02-03T11:32:49.296Z,40
2018-02-03T11:33:41.174Z,40
2018-02-03T11:34:33.740Z,40
2018-02-03T11:35:26.052Z,40
2018-02-03T11:36:18.287Z,40
2018-02-03T11:37:10.428Z,40
2018-02-03T11:38:02.474Z,40
2018-02-03T11:38:54.865Z,35
2018-02-03T11:39:47.166Z,35
2018-02-03T11:40:40.209Z,35
2018-02-03T11:41:33.548Z,35
2018-02-03T11:42:26.804Z,35
2018-02-03T11:43:19.351Z,35
2018-02-03T11:44:13.251Z,30
2018-02-03T11:45:05.722Z,30
2018-02-03T11:45:58.148Z,30
2018-02-03T11:46:50.489Z,30
2018-02-03T11:47:42.263Z,25
2018-02-03T11:48:34.737Z,25
2018-02-03T11:49:26.898Z,25
2018-02-03T11:50:19.973Z,25
2018-02-03T11:51:08.857Z,20
2018-02-03T11:51:49.355Z,20
2018-02-03T11:52:29.747Z,20
2018-02-03T11:53:10.094Z,20
2018-02-03T11:53:50.608Z,20
2018-02-03T11:54:31.007Z,20
2018-02-03T11:55:11.439Z,20
2018-02-03T11:55:51.785Z,20
2018-02-03T11:56:32.211Z,20
2018-02-03T11:57:12.645Z,15
2018-02-03T11:57:53.095Z,15
2018-02-03T11:58:33.512Z,15
2018-02-03T11:59:13.917Z,15
2018-02-03T11:59:54.358Z,15
2018-02-03T12:00:34.709Z,15
2018-02-03T12:01:15.147Z,15
2018-02-03T12:01:55.524Z,15
2018-02-03T12:02:35.857Z,15
2018-02-03T12:03:16.353Z,15
2018-02-03T12:03:56.760Z,15
2018-02-03T12:04:37.177Z,15
2018-02-03T12:05:17.642Z,15
2018-02-03T12:05:58.068Z,15
2018-02-03T12:06:38.440Z,15
2018-02-03T12:07:18.966Z,15
2018-02-03T12:07:59.439Z,15
2018-02-03T12:08:39.911Z,15
2018-02-03T12:09:20.290Z,15
2018-02-03T12:10:00.596Z,15
2018-02-03T12:10:41.149Z,15
2018-02-03T12:11:21.397Z,15
2018-02-03T12:12:01.773Z,15
2018-02-03T12:12:42.267Z,15
2018-02-03T12:13:22.626Z,15
2018-02-03T12:14:03.139Z,15
2018-02-03T12:14:43.554Z,15
2018-02-03T12:15:23.940Z,15
2018-02-03T12:16:04.368Z,15
2018-02-03T12:16:44.864Z,15
2018-02-03T12:17:25.243Z,15
2018-02-03T12:18:05.667Z,15
2018-02-03T12:18:46.082Z,10
2018-02-03T12:19:26.460Z,10
2018-02-03T12:20:06.864Z,10
2018-02-03T12:20:47.213Z,10
2018-02-03T12:21:27.617Z,10
2018-02-03T12:22:08.009Z,10
2018-02-03T12:22:48.418Z,10
2018-02-03T12:23:28.909Z,10
2018-02-03T12:24:09.333Z,10
2018-02-03T12:24:49.775Z,10
2018-02-03T12:25:30.153Z,10
2018-02-03T12:26:10.739Z,10
2018-02-03T12:26:51.051Z,10
2018-02-03T12:27:31.480Z,10
2018-02-03T12:28:12.212Z,10
2018-02-03T12:28:52.633Z,10
2018-02-03T12:29:33.055Z,10
2018-02-03T12:30:13.458Z,10
2018-02-03T12:30:53.927Z,10
2018-02-03T12:31:34.367Z,10
2018-02-03T12:32:15.000Z,10
2018-02-03T12:32:55.526Z,10
2018-02-03T12:33:36.269Z,10
2018-02-03T12:34:16.650Z,10
2018-02-03T12:34:57.077Z,10
2018-02-03T12:35:37.587Z,10
2018-02-03T12:36:18.130Z,10
2018-02-03T12:36:58.567Z,15
2018-02-03T12:37:39.011Z,15
2018-02-03T12:38:19.595Z,15
2018-02-03T12:38:59.957Z,15
2018-02-03T12:39:40.339Z,15
2018-02-03T12:40:20.829Z,15
2018-02-03T12:41:01.261Z,15
2018-02-03T12:41:41.644Z,15
2018-02-03T12:42:22.043Z,15
2018-02-03T12:43:02.423Z,15
2018-02-03T12:43:42.856Z,15
2018-02-03T12:44:23.253Z,15
2018-02-03T12:45:03.666Z,15
2018-02-03T12:45:44.023Z,15
2018-02-03T12:46:24.453Z,15
2018-02-03T12:47:04.782Z,15
2018-02-03T12:47:45.343Z,15
2018-02-03T12:48:25.655Z,15
2018-02-03T12:49:06.116Z,15
2018-02-03T12:49:46.800Z,15
2018-02-03T12:50:27.277Z,15
2018-02-03T12:51:07.795Z,15
2018-02-03T12:51:48.219Z,15
2018-02-03T12:52:28.677Z,15
2018-02-03T12:53:09.134Z,15
2018-02-03T12:53:49.488Z,15
2018-02-03T12:54:29.846Z,15
2018-02-03T12:55:10.249Z,15
2018-02-03T12:55:50.684Z,15
2018-02-03T12:56:31.171Z,15
2018-02-03T12:57:11.566Z,15
2018-02-03T12:57:52.179Z,15
2018-02-03T12:58:32.657Z,20
2018-02-03T12:59:12.943Z,20
2018-02-03T12:59:53.394Z,20
2018-02-03T13:00:33.840Z,20
2018-02-03T13:01:14.545Z,20
2018-02-03T13:01:54.651Z,20
2018-02-03T13:02:35.109Z,20
2018-02-03T13:03:15.521Z,20
2018-02-03T13:03:55.932Z,20
2018-02-03T13:04:36.481Z,20
2018-02-03T13:05:16.942Z,20
2018-02-03T13:05:57.466Z,20
2018-02-03T13:06:37.996Z,20
2018-02-03T13:07:18.157Z,20
2018-02-03T13:07:58.706Z,20
2018-02-03T13:08:39.236Z,20
2018-02-03T13:09:19.555Z,20
2018-02-03T13:10:00.124Z,20
2018-02-03T13:10:40.533Z,20
2018-02-03T13:11:21.034Z,20